createdAt,value
2022-09-22T00:01:32.774Z,10.09
2022-09-22T00:04:03.680Z,10.02
2022-09-22T00:06:35.293Z,9.97
2022-09-22T00:09:03.506Z,9.90
2022-09-22T00:11:37.561Z,9.83
2022-09-22T00:14:13.398Z,9.75
2022-09-22T00:16:44.994Z,9.67
2022-09-22T00:19:16.253Z,9.61
2022-09-22T00:21:44.827Z,9.56
2022-09-22T00:24:13.037Z,9.55
2022-09-22T00:26:41.284Z,9.57
2022-09-22T00:29:09.867Z,9.61
2022-09-22T00:31:39.567Z,9.66
2022-09-22T00:34:07.698Z,9.72
2022-09-22T00:36:35.511Z,9.77
2022-09-22T00:39:03.767Z,9.80
2022-09-22T00:41:36.367Z,9.83
2022-09-22T00:44:26.116Z,9.84
2022-09-22T00:46:58.765Z,9.85
2022-09-22T00:50:00.817Z,9.78
2022-09-22T00:52:33.417Z,9.69
2022-09-22T00:55:04.663Z,9.59
2022-09-22T00:57:34.467Z,9.50
2022-09-22T01:00:05.877Z,9.41
2022-09-22T01:02:33.957Z,9.34
2022-09-22T01:05:02.245Z,9.26
2022-09-22T01:07:31.182Z,9.19
2022-09-22T01:09:59.875Z,9.13
2022-09-22T01:12:29.378Z,9.07
2022-09-22T01:15:24.612Z,9.03
2022-09-22T01:18:13.645Z,8.99
2022-09-22T01:21:15.129Z,8.98
2022-09-22T01:24:10.898Z,8.97
2022-09-22T01:26:47.240Z,8.97
2022-09-22T01:29:36.398Z,8.98
2022-09-22T01:32:17.150Z,8.98
2022-09-22T01:34:51.942Z,8.99
2022-09-22T01:37:54.310Z,9.01
2022-09-22T01:40:33.581Z,9.03
2022-09-22T01:43:46.159Z,9.06
2022-09-22T01:46:19.542Z,9.06
2022-09-22T01:48:49.504Z,9.04
2022-09-22T01:51:18.713Z,9.04
2022-09-22T01:53:56.168Z,9.04
2022-09-22T01:56:26.039Z,9.03
2022-09-22T01:58:58.248Z,9.01
2022-09-22T02:01:29.613Z,9.03
2022-09-22T02:04:04.298Z,9.04
2022-09-22T02:06:43.469Z,9.04
2022-09-22T02:09:13.197Z,9.06
2022-09-22T02:11:41.786Z,9.10
2022-09-22T02:14:09.893Z,9.12
2022-09-22T02:16:37.783Z,9.14
2022-09-22T02:19:13.439Z,9.17
2022-09-22T02:21:45.198Z,9.18
2022-09-22T02:24:39.972Z,9.20
2022-09-22T02:27:11.843Z,9.22
2022-09-22T02:29:46.587Z,9.22
2022-09-22T02:32:16.598Z,9.22
2022-09-22T02:34:45.880Z,9.24
2022-09-22T02:37:13.801Z,9.25
2022-09-22T02:40:03.385Z,9.24
2022-09-22T02:42:35.304Z,9.27
2022-09-22T02:45:13.629Z,9.30
2022-09-22T02:48:00.429Z,9.33
2022-09-22T02:50:30.002Z,9.33
2022-09-22T02:52:58.744Z,9.36
2022-09-22T02:55:26.720Z,9.34
2022-09-22T02:57:54.790Z,9.34
2022-09-22T03:00:22.852Z,9.35
2022-09-22T03:02:50.993Z,9.35
2022-09-22T03:05:18.961Z,9.34
2022-09-22T03:07:46.718Z,9.35
2022-09-22T03:10:14.590Z,9.37
2022-09-22T03:13:09.183Z,9.37
2022-09-22T03:15:31.776Z,9.38
2022-09-22T03:17:59.620Z,9.39
2022-09-22T03:20:27.546Z,9.41
2022-09-22T03:22:55.386Z,9.43
2022-09-22T03:25:23.281Z,9.44
2022-09-22T03:27:51.161Z,9.45
2022-09-22T03:30:19.060Z,9.46
2022-09-22T03:32:47.519Z,9.45
2022-09-22T03:35:15.844Z,9.45
2022-09-22T03:37:44.389Z,9.45
2022-09-22T03:40:12.495Z,9.44
2022-09-22T03:42:40.453Z,9.43
2022-09-22T03:45:09.442Z,9.43
2022-09-22T03:47:37.176Z,9.41
2022-09-22T03:50:05.516Z,9.40
2022-09-22T03:52:33.595Z,9.39
2022-09-22T03:55:03.288Z,9.40
2022-09-22T03:57:31.872Z,9.42
2022-09-22T03:59:59.590Z,9.41
2022-09-22T04:02:27.695Z,9.43
2022-09-22T04:04:55.731Z,9.44
2022-09-22T04:07:24.289Z,9.43
2022-09-22T04:09:52.697Z,9.43
2022-09-22T04:12:20.487Z,9.44
2022-09-22T04:14:48.298Z,9.43
2022-09-22T04:17:15.979Z,9.41
2022-09-22T04:19:44.113Z,9.42
2022-09-22T04:22:12.257Z,9.43
2022-09-22T04:24:39.967Z,9.44
2022-09-22T04:27:19.448Z,9.44
2022-09-22T04:29:49.741Z,9.45
2022-09-22T04:32:18.260Z,9.45
2022-09-22T04:37:27.417Z,9.53
2022-09-22T04:39:55.581Z,9.53
2022-09-22T04:42:23.363Z,9.52
2022-09-22T04:44:51.213Z,9.51
2022-09-22T04:47:19.410Z,9.53
2022-09-22T04:49:47.222Z,9.55
2022-09-22T04:52:15.214Z,9.56
2022-09-22T04:54:43.910Z,9.56
2022-09-22T04:57:11.820Z,9.57
2022-09-22T04:59:39.573Z,9.60
2022-09-22T05:02:07.858Z,9.62
2022-09-22T05:04:36.197Z,9.64
2022-09-22T05:07:05.190Z,9.65
2022-09-22T05:09:33.388Z,9.66
2022-09-22T05:12:01.474Z,9.68
2022-09-22T05:14:29.637Z,9.69
2022-09-22T05:16:57.399Z,9.68
2022-09-22T05:19:25.574Z,9.66
2022-09-22T05:21:54.102Z,9.65
2022-09-22T05:24:22.153Z,9.66
2022-09-22T05:26:50.504Z,9.67
2022-09-22T05:29:18.376Z,9.69
2022-09-22T05:31:46.290Z,9.74
2022-09-22T05:34:14.370Z,9.76
2022-09-22T05:36:42.531Z,9.78
2022-09-22T05:39:10.417Z,9.81
2022-09-22T05:41:38.623Z,9.83
2022-09-22T05:44:06.369Z,9.84
2022-09-22T05:46:34.462Z,9.83
2022-09-22T05:49:02.424Z,9.89
2022-09-22T05:51:30.994Z,9.95
2022-09-22T05:53:59.010Z,10.02
2022-09-22T05:56:27.029Z,10.04
2022-09-22T05:58:54.703Z,10.07
2022-09-22T06:01:22.666Z,10.10
2022-09-22T06:03:50.433Z,10.12
2022-09-22T06:06:18.957Z,10.15
2022-09-22T06:08:49.166Z,10.18
2022-09-22T06:11:17.056Z,10.19
2022-09-22T06:13:45.112Z,10.22
2022-09-22T06:16:13.300Z,10.28
2022-09-22T06:18:41.511Z,10.33
2022-09-22T06:21:09.709Z,10.35
2022-09-22T06:23:42.595Z,10.40
2022-09-22T06:26:11.168Z,10.42
2022-09-22T06:28:38.965Z,10.43
2022-09-22T06:31:07.218Z,10.51
2022-09-22T06:33:35.862Z,10.52
2022-09-22T06:36:08.051Z,10.55
2022-09-22T06:38:35.913Z,10.59
2022-09-22T06:41:06.944Z,10.64
2022-09-22T06:43:38.080Z,10.68
2022-09-22T06:46:06.326Z,10.76
2022-09-22T06:48:34.586Z,10.86
2022-09-22T06:51:02.325Z,10.94
2022-09-22T06:53:30.197Z,11.02
2022-09-22T06:56:00.416Z,11.09
2022-09-22T06:58:29.122Z,11.16
2022-09-22T07:00:59.212Z,11.19
2022-09-22T07:03:27.219Z,11.19
2022-09-22T07:05:57.454Z,11.25
2022-09-22T07:08:25.787Z,11.30
2022-09-22T07:10:55.011Z,11.34
2022-09-22T07:13:24.839Z,11.34
2022-09-22T07:15:52.759Z,11.35
2022-09-22T07:18:20.619Z,11.43
2022-09-22T07:20:48.366Z,11.56
2022-09-22T07:23:20.983Z,11.67
2022-09-22T07:25:59.451Z,11.77
2022-09-22T07:28:28.871Z,11.84
2022-09-22T07:31:01.749Z,11.92
2022-09-22T07:33:29.633Z,11.96
2022-09-22T07:36:08.829Z,12.04
2022-09-22T07:38:37.241Z,12.11
2022-09-22T07:41:09.873Z,12.11
2022-09-22T07:43:39.091Z,12.17
2022-09-22T07:46:07.976Z,12.22
2022-09-22T07:48:37.572Z,12.24
2022-09-22T07:51:14.273Z,12.27
2022-09-22T07:53:43.598Z,12.24
2022-09-22T07:56:15.159Z,12.23
2022-09-22T07:58:50.198Z,12.24
2022-09-22T08:01:19.813Z,12.27
2022-09-22T08:03:47.849Z,12.36
2022-09-22T08:06:18.389Z,12.41
2022-09-22T08:08:52.361Z,12.57
2022-09-22T08:11:37.177Z,12.84
2022-09-22T08:14:08.083Z,13.21
2022-09-22T08:16:38.252Z,13.50
2022-09-22T08:19:12.614Z,13.64
2022-09-22T08:21:49.178Z,13.77
2022-09-22T08:24:22.003Z,13.96
2022-09-22T08:26:52.373Z,14.04
2022-09-22T08:29:22.120Z,14.37
2022-09-22T08:31:51.515Z,14.62
2022-09-22T08:34:20.262Z,15.37
2022-09-22T08:36:49.194Z,18.32
2022-09-22T08:39:18.200Z,19.52
2022-09-22T08:42:09.268Z,19.46
2022-09-22T08:44:57.190Z,19.22
2022-09-22T08:48:06.673Z,19.22
2022-09-22T08:50:58.847Z,19.54
2022-09-22T08:53:32.302Z,20.09
2022-09-22T08:56:23.224Z,20.40
2022-09-22T08:59:03.047Z,20.98
2022-09-22T09:01:49.787Z,21.15
2022-09-22T09:04:42.592Z,21.11
2022-09-22T09:07:16.135Z,21.84
2022-09-22T09:09:50.316Z,23.77
2022-09-22T09:12:34.728Z,24.57
2022-09-22T09:15:30.332Z,26.65
2022-09-22T09:18:02.381Z,29.87
2022-09-22T09:20:40.158Z,30.42
2022-09-22T09:23:18.903Z,29.49
2022-09-22T09:25:50.317Z,28.37
2022-09-22T09:28:34.077Z,28.17
2022-09-22T09:31:18.374Z,27.96
2022-09-22T09:33:52.703Z,28.11
2022-09-22T09:36:23.233Z,29.58
2022-09-22T09:38:54.694Z,32.06
2022-09-22T09:41:32.819Z,34.66
2022-09-22T09:44:01.593Z,35.56
2022-09-22T09:47:03.393Z,35.04
2022-09-22T09:49:31.399Z,33.47
2022-09-22T09:52:00.838Z,32.86
2022-09-22T09:54:29.457Z,31.21
2022-09-22T09:57:10.492Z,29.29
2022-09-22T10:00:00.619Z,28.49
2022-09-22T10:02:34.777Z,28.92
2022-09-22T10:05:14.034Z,31.88
2022-09-22T10:07:47.028Z,35.68
2022-09-22T10:10:36.277Z,38.53
2022-09-22T10:13:04.397Z,40.66
2022-09-22T10:15:37.819Z,42.04
2022-09-22T10:18:24.198Z,41.31
2022-09-22T10:21:04.049Z,38.81
2022-09-22T10:23:34.849Z,36.94
2022-09-22T10:26:17.902Z,35.21
2022-09-22T10:28:50.408Z,33.34
2022-09-22T10:31:20.641Z,31.53
2022-09-22T10:33:59.916Z,29.82
2022-09-22T10:36:29.428Z,28.11
2022-09-22T10:38:59.724Z,26.64
2022-09-22T10:41:34.242Z,25.33
2022-09-22T10:44:27.757Z,24.26
2022-09-22T10:47:11.501Z,23.40
2022-09-22T10:50:10.693Z,22.89
2022-09-22T10:52:51.223Z,22.28
2022-09-22T10:55:25.882Z,21.71
2022-09-22T10:58:08.664Z,21.44
2022-09-22T11:00:39.255Z,21.41
2022-09-22T11:03:26.232Z,21.26
2022-09-22T11:06:32.006Z,21.51
2022-09-22T11:12:39.664Z,23.13
2022-09-22T11:15:11.685Z,23.21
2022-09-22T11:18:01.484Z,23.40
2022-09-22T11:20:34.608Z,23.76
2022-09-22T11:23:30.175Z,23.42
2022-09-22T11:26:16.750Z,22.67
2022-09-22T11:28:57.319Z,21.95
2022-09-22T11:31:31.422Z,21.33
2022-09-22T11:34:12.971Z,20.56
2022-09-22T11:36:53.921Z,19.89
2022-09-22T11:39:34.237Z,19.38
2022-09-22T11:42:59.433Z,19.00
2022-09-22T11:45:39.192Z,18.60
2022-09-22T11:48:19.013Z,18.46
2022-09-22T11:50:55.722Z,18.53
2022-09-22T11:53:32.884Z,18.68
2022-09-22T11:56:16.009Z,18.89
2022-09-22T11:58:44.765Z,19.43
2022-09-22T12:01:20.509Z,19.86
2022-09-22T12:04:09.075Z,19.79
2022-09-22T12:06:41.514Z,19.33
2022-09-22T12:09:19.774Z,18.82
2022-09-22T12:11:47.854Z,18.29
2022-09-22T12:14:15.909Z,17.91
2022-09-22T12:16:54.405Z,17.66
2022-09-22T12:19:41.499Z,17.53
2022-09-22T12:22:24.512Z,17.54
2022-09-22T12:24:52.198Z,17.59
2022-09-22T12:27:26.347Z,17.36
2022-09-22T12:30:03.894Z,17.00
2022-09-22T12:32:41.902Z,16.63
2022-09-22T12:35:34.039Z,16.34
2022-09-22T12:38:03.660Z,16.05
2022-09-22T12:40:37.223Z,15.76
2022-09-22T12:43:06.070Z,15.55
2022-09-22T12:45:36.540Z,15.39
2022-09-22T12:48:14.518Z,15.24
2022-09-22T12:50:44.372Z,15.07
2022-09-22T12:53:21.564Z,14.94
2022-09-22T12:55:50.534Z,14.84
2022-09-22T12:58:18.557Z,14.81
2022-09-22T13:00:47.798Z,14.78
2022-09-22T13:03:30.196Z,14.79
2022-09-22T13:05:59.961Z,14.80
2022-09-22T13:08:33.957Z,14.81
2022-09-22T13:11:03.341Z,14.86
2022-09-22T13:13:31.791Z,14.91
2022-09-22T13:16:02.058Z,14.95
2022-09-22T13:18:33.022Z,15.01
2022-09-22T13:21:13.184Z,15.07
2022-09-22T13:23:58.740Z,15.18
2022-09-22T13:26:40.925Z,15.35
2022-09-22T13:29:21.404Z,15.45
2022-09-22T13:31:57.961Z,15.51
2022-09-22T13:34:29.338Z,15.55
2022-09-22T13:37:04.311Z,15.61
2022-09-22T13:39:34.798Z,15.70
2022-09-22T13:42:06.685Z,15.84
2022-09-22T13:44:37.110Z,15.95
2022-09-22T13:47:07.861Z,16.22
2022-09-22T13:49:44.710Z,16.36
2022-09-22T13:52:21.638Z,16.32
2022-09-22T13:54:52.902Z,16.29
2022-09-22T13:57:24.218Z,16.24
2022-09-22T13:59:52.657Z,16.23
2022-09-22T14:02:28.186Z,16.19
2022-09-22T14:05:07.247Z,16.09
2022-09-22T14:07:49.483Z,16.04
2022-09-22T14:10:27.787Z,15.95
2022-09-22T14:12:56.826Z,15.88
2022-09-22T14:15:43.798Z,15.79
2022-09-22T14:18:21.958Z,15.73
2022-09-22T14:20:49.885Z,15.71
2022-09-22T14:23:33.299Z,15.67
2022-09-22T14:26:04.209Z,15.61
2022-09-22T14:28:35.467Z,15.58
2022-09-22T14:31:15.798Z,15.55
2022-09-22T14:33:45.627Z,15.49
2022-09-22T14:36:19.876Z,15.44
2022-09-22T14:39:03.784Z,15.36
2022-09-22T14:41:36.989Z,15.28
2022-09-22T14:44:26.716Z,15.26
2022-09-22T14:47:09.506Z,15.22
2022-09-22T14:49:43.264Z,15.15
2022-09-22T14:52:30.812Z,15.10
2022-09-22T14:55:06.758Z,15.02
2022-09-22T14:57:35.595Z,14.94
2022-09-22T15:00:23.017Z,14.84
2022-09-22T15:02:53.776Z,14.69
2022-09-22T15:05:30.608Z,14.52
2022-09-22T15:07:58.949Z,14.39
2022-09-22T15:10:35.888Z,14.31
2022-09-22T15:13:29.709Z,14.21
2022-09-22T15:15:57.702Z,14.14
2022-09-22T15:18:30.401Z,14.10
2022-09-22T15:21:09.565Z,14.04
2022-09-22T15:23:44.749Z,13.95
2022-09-22T15:26:25.132Z,13.86
2022-09-22T15:28:55.025Z,13.78
2022-09-22T15:31:27.244Z,13.71
2022-09-22T15:34:02.089Z,13.65
2022-09-22T15:36:32.881Z,13.62
2022-09-22T15:39:07.029Z,13.59
2022-09-22T15:41:35.578Z,13.59
2022-09-22T15:44:03.630Z,13.61
2022-09-22T15:46:34.524Z,13.60
2022-09-22T15:49:16.920Z,13.59
2022-09-22T15:51:44.902Z,13.58
2022-09-22T15:54:14.670Z,13.55
2022-09-22T15:56:44.325Z,13.52
2022-09-22T15:59:22.913Z,13.49
2022-09-22T16:01:51.991Z,13.42
2022-09-22T16:04:20.829Z,13.37
2022-09-22T16:06:54.353Z,13.30
2022-09-22T16:09:22.541Z,13.24
2022-09-22T16:11:50.624Z,13.17
2022-09-22T16:14:18.755Z,13.09
2022-09-22T16:16:46.627Z,12.99
2022-09-22T16:19:14.488Z,12.92
2022-09-22T16:21:52.821Z,12.83
2022-09-22T16:24:22.803Z,12.74
2022-09-22T16:26:54.259Z,12.65
2022-09-22T16:29:22.416Z,12.57
2022-09-22T16:31:51.239Z,12.49
2022-09-22T16:34:19.148Z,12.43
2022-09-22T16:36:47.163Z,12.37
2022-09-22T16:39:14.906Z,12.30
2022-09-22T16:41:46.329Z,12.25
2022-09-22T16:44:15.637Z,12.20
2022-09-22T16:46:43.483Z,12.15
2022-09-22T16:49:13.803Z,12.11
2022-09-22T16:51:48.866Z,12.07
2022-09-22T16:54:18.612Z,12.01
2022-09-22T16:56:49.114Z,11.96
2022-09-22T16:59:19.214Z,11.89
2022-09-22T17:01:47.734Z,11.80
2022-09-22T17:04:16.864Z,11.71
2022-09-22T17:06:45.422Z,11.63
2022-09-22T17:09:14.471Z,11.52
2022-09-22T17:11:45.289Z,11.41
2022-09-22T17:14:15.546Z,11.35
2022-09-22T17:16:49.771Z,11.28
2022-09-22T17:19:23.246Z,11.20
2022-09-22T17:21:52.871Z,11.13
2022-09-22T17:24:21.786Z,11.08
2022-09-22T17:26:52.083Z,11.06
2022-09-22T17:29:26.441Z,11.03
2022-09-22T17:31:57.344Z,11.02
2022-09-22T17:34:28.405Z,11.00
2022-09-22T17:36:57.417Z,10.99
2022-09-22T17:39:26.720Z,10.99
2022-09-22T17:41:55.198Z,10.98
2022-09-22T17:44:25.315Z,10.96
2022-09-22T17:47:11.829Z,10.96
2022-09-22T17:49:58.762Z,10.95
2022-09-22T17:52:29.597Z,10.95
2022-09-22T17:55:14.237Z,10.94
2022-09-22T17:57:43.678Z,10.95
2022-09-22T18:00:13.296Z,10.96
2022-09-22T18:02:41.588Z,10.97
2022-09-22T18:05:12.559Z,10.97
2022-09-22T18:07:41.260Z,10.98
2022-09-22T18:10:15.160Z,10.99
2022-09-22T18:12:44.210Z,11.00
2022-09-22T18:15:13.449Z,11.00
2022-09-22T18:17:42.554Z,11.01
2022-09-22T18:20:16.959Z,10.99
2022-09-22T18:22:49.152Z,10.98
2022-09-22T18:25:23.123Z,10.98
2022-09-22T18:27:51.087Z,10.98
2022-09-22T18:30:19.667Z,10.98
2022-09-22T18:32:48.921Z,10.99
2022-09-22T18:35:17.051Z,10.99
2022-09-22T18:37:46.490Z,10.98
2022-09-22T18:40:16.190Z,10.99
2022-09-22T18:42:44.862Z,11.01
2022-09-22T18:45:14.364Z,11.02
2022-09-22T18:47:43.908Z,11.02
2022-09-22T18:50:12.415Z,11.01
2022-09-22T18:52:43.294Z,11.00
2022-09-22T18:55:14.056Z,11.00
2022-09-22T18:57:42.406Z,11.01
2022-09-22T19:00:11.702Z,11.03
2022-09-22T19:02:39.808Z,11.04
2022-09-22T19:05:08.166Z,11.03
2022-09-22T19:07:43.542Z,11.03
2022-09-22T19:10:14.852Z,11.03
2022-09-22T19:12:43.015Z,11.04
2022-09-22T19:15:18.917Z,11.05
2022-09-22T19:17:49.385Z,11.04
2022-09-22T19:20:21.958Z,11.05
2022-09-22T19:22:50.660Z,11.05
2022-09-22T19:25:21.620Z,11.04
2022-09-22T19:27:52.556Z,11.05
2022-09-22T19:30:24.830Z,11.03
2022-09-22T19:32:54.546Z,11.03
2022-09-22T19:35:22.775Z,11.04
2022-09-22T19:37:51.932Z,11.03
2022-09-22T19:40:24.265Z,11.03
2022-09-22T19:42:53.178Z,11.04
2022-09-22T19:45:21.886Z,11.04
2022-09-22T19:47:49.809Z,11.05
2022-09-22T19:50:17.956Z,11.04
2022-09-22T19:52:45.695Z,11.03
2022-09-22T19:55:13.518Z,11.01
2022-09-22T19:57:41.882Z,11.01
2022-09-22T20:00:18.064Z,11.01
2022-09-22T20:02:45.938Z,11.02
2022-09-22T20:05:19.337Z,11.00
2022-09-22T20:07:48.239Z,11.00
2022-09-22T20:10:18.912Z,11.00
2022-09-22T20:12:46.689Z,10.99
2022-09-22T20:15:15.793Z,10.98
2022-09-22T20:17:46.143Z,10.97
2022-09-22T20:20:16.208Z,10.95
2022-09-22T20:22:46.690Z,10.93
2022-09-22T20:25:22.694Z,10.90
2022-09-22T20:27:50.901Z,10.88
2022-09-22T20:30:19.476Z,10.86
2022-09-22T20:32:47.590Z,10.84
2022-09-22T20:35:17.935Z,10.82
2022-09-22T20:37:45.701Z,10.80
2022-09-22T20:40:18.812Z,10.78
2022-09-22T20:42:48.662Z,10.77
2022-09-22T20:45:18.675Z,10.71
2022-09-22T20:47:46.866Z,10.69
2022-09-22T20:50:14.879Z,10.65
2022-09-22T20:52:43.226Z,10.61
2022-09-22T20:55:11.085Z,10.58
2022-09-22T20:57:40.603Z,10.53
2022-09-22T21:00:08.982Z,10.47
2022-09-22T21:02:36.825Z,10.40
2022-09-22T21:05:05.246Z,10.34
2022-09-22T21:07:33.890Z,10.26
2022-09-22T21:10:20.419Z,10.18
2022-09-22T21:12:50.662Z,10.10
2022-09-22T21:15:21.532Z,10.03
2022-09-22T21:17:49.809Z,10.01
2022-09-22T21:20:17.537Z,9.99
2022-09-22T21:22:45.726Z,9.95
2022-09-22T21:25:13.498Z,9.90
2022-09-22T21:27:41.520Z,9.86
2022-09-22T21:30:09.983Z,9.83
2022-09-22T21:32:38.736Z,9.79
2022-09-22T21:35:06.897Z,9.74
2022-09-22T21:37:34.670Z,9.64
2022-09-22T21:40:02.721Z,9.56
2022-09-22T21:42:31.381Z,9.47
2022-09-22T21:44:59.393Z,9.39
2022-09-22T21:47:27.146Z,9.32
2022-09-22T21:49:54.824Z,9.25
2022-09-22T21:52:22.895Z,9.18
2022-09-22T21:54:50.750Z,9.12
2022-09-22T21:57:18.663Z,9.04
2022-09-22T21:59:46.611Z,8.96
2022-09-22T22:02:14.478Z,8.89
2022-09-22T22:04:42.329Z,8.83
2022-09-22T22:07:11.907Z,8.75
2022-09-22T22:09:39.663Z,8.69
2022-09-22T22:12:08.951Z,8.60
2022-09-22T22:14:36.766Z,8.53
2022-09-22T22:17:05.630Z,8.46
2022-09-22T22:19:34.662Z,8.41
2022-09-22T22:22:02.457Z,8.35
2022-09-22T22:24:40.995Z,8.29
2022-09-22T22:27:10.527Z,8.23
2022-09-22T22:29:40.784Z,8.18
2022-09-22T22:32:10.445Z,8.14
2022-09-22T22:34:38.195Z,8.08
2022-09-22T22:37:09.601Z,8.02
2022-09-22T22:39:38.320Z,7.96
2022-09-22T22:42:07.027Z,7.92
2022-09-22T22:44:35.391Z,7.87
2022-09-22T22:47:03.692Z,7.83
2022-09-22T22:49:32.773Z,7.78
2022-09-22T22:52:00.632Z,7.75
2022-09-22T22:54:28.418Z,7.68
2022-09-22T22:56:56.594Z,7.64
2022-09-22T22:59:24.379Z,7.58
2022-09-22T23:01:52.384Z,7.52
2022-09-22T23:04:21.312Z,7.46
2022-09-22T23:06:49.254Z,7.41
2022-09-22T23:09:17.233Z,7.36
2022-09-22T23:11:46.222Z,7.31
2022-09-22T23:14:16.604Z,7.28
2022-09-22T23:16:46.931Z,7.24
2022-09-22T23:19:17.316Z,7.22
2022-09-22T23:21:46.439Z,7.18
2022-09-22T23:24:16.441Z,7.14
2022-09-22T23:26:45.186Z,7.10
2022-09-22T23:29:13.196Z,7.06
2022-09-22T23:31:41.156Z,7.01
2022-09-22T23:34:08.878Z,6.96
2022-09-22T23:36:37.130Z,6.90
2022-09-22T23:39:05.179Z,6.85
2022-09-22T23:41:34.492Z,6.81
2022-09-22T23:44:03.209Z,6.77
2022-09-22T23:46:31.784Z,6.73
2022-09-22T23:49:00.466Z,6.69
2022-09-22T23:51:28.629Z,6.66
2022-09-22T23:53:57.280Z,6.62
2022-09-22T23:56:26.083Z,6.60
2022-09-22T23:58:53.995Z,6.59
